NOAA-Style Climate Reports


Report for 2024 Kwiecień
                   Monthly Climatological Summary for kwi 2024

Name: Meteo Bielsko   City: Bielsko-Biala   State: Stare Bielsko
Elevation: 365 m  Lat: N 49° 49' 11"   Lon: E 018° 59' 24"

                  Temperature (°C), Rain (mm), Wind Speed (km/h)

                                      Heat  Cool        Avg
    Mean                              Deg   Deg         Wind                 Dom
Day Temp  High   Time   Low    Time   Days  Days  Rain  Speed High   Time    Dir
----------------------------------------------------------------------------------
 1  19,4  24,8   15:31  14,0   02:51   1,0   2,1   0,0   0,0   0,0   00:00     E
 2   9,9  14,5   00:00   6,8   09:00   8,4   0,0   0,0   0,0   0,0   00:00     E
 3  12,2  16,6   13:47   8,6   03:37   6,1   0,0   0,0   0,0   0,0   00:00     E
 4  13,2  13,2   00:00  13,2   00:00   5,1   0,0   0,0   0,0   0,0   00:00     E
 5  13,2  13,2   00:00  13,2   00:00   5,1   0,0   0,0   0,0   0,0   00:00     E
 6  13,2  13,2   00:00  13,2   00:00   5,1   0,0   0,0   0,0   0,0   00:00     E
 7  13,2  13,2   00:00  13,2   00:00   5,1   0,0   0,0   0,0   0,0   00:00     E
 8  13,2  13,2   00:00  13,2   00:00   5,1   0,0   0,0   0,0   0,0   00:00     E
 9  13,2  13,2   00:00  13,2   00:00   5,1   0,0   0,0   0,0   0,0   00:00     E
10  13,2  13,2   00:00  13,2   00:00   3,7   0,0   0,0   0,0   0,0   00:00     E
11   0,0   0,0   00:00   0,0   00:00   0,0   0,0   0,0  ----   0,0   00:00   ---
12  17,4  22,5   13:11   0,0   00:00   1,5   1,0   0,0   0,0   0,0   00:00     E
13  15,7  23,7   14:31   8,8   05:32   3,9   1,3   0,0   0,0   0,0   00:00     E
14  17,6  22,5   13:52  11,7   23:19   2,0   1,3   0,0   0,0   0,0   00:00     E
15  11,3  13,7   08:53  10,0   21:24   7,0   0,0   0,0   0,0   0,0   00:00     E
16   8,6  13,1   01:39   3,3   20:58   9,7   0,0   0,0   0,0   0,0   00:00     E
17   5,1   8,3   13:46   3,6   20:31  13,2   0,0   0,0   0,0   0,0   00:00     E
18   5,4   9,6   13:06   2,5   21:14  12,9   0,0   0,0   0,0   0,0   00:00     E
19   2,5   2,5   00:00   2,5   00:00  15,8   0,0   0,0   0,0   0,0   00:00     E
20   2,5   2,5   00:00   2,5   00:00  15,8   0,0   0,0   0,0   0,0   00:00     E
21   2,5   2,5   00:00   2,5   00:00  15,8   0,0   0,0   0,0   0,0   00:00     E
----------------------------------------------------------------------------------
    10,6  24,8     1     0,0    11   147,4   5,7   0,0   0,0   0,0     0     ---

Max >=  27,0:  0
Max <=   0,0:  1
Min <=   0,0:  2
Min <= -18,0:  0
Max Rain: 0,0 on day 0
Days of Rain: 0 (>= 0,2 mm)  0 (>= 2,0 mm)  0 (>= 20,0 mm)
Heat Base: 18,3  Cool Base: 18,3  Method: Integration